createdAt,value
2017-12-25T00:00:48.929Z,20.40
2017-12-25T00:01:53.925Z,20.40
2017-12-25T00:02:58.746Z,20.40
2017-12-25T00:04:03.569Z,20.40
2017-12-25T00:05:08.723Z,20.30
2017-12-25T00:06:13.673Z,20.20
2017-12-25T00:07:18.507Z,20.10
2017-12-25T00:08:23.443Z,20.10
2017-12-25T00:09:28.386Z,20.10
2017-12-25T00:10:33.384Z,20.00
2017-12-25T00:11:38.479Z,19.90
2017-12-25T00:12:43.328Z,19.90
2017-12-25T00:13:49.301Z,19.80
2017-12-25T00:14:54.314Z,19.80
2017-12-25T00:15:59.318Z,19.80
2017-12-25T00:17:04.337Z,19.80
2017-12-25T00:18:09.247Z,19.80
2017-12-25T00:19:14.160Z,19.70
2017-12-25T00:20:19.138Z,19.60
2017-12-25T00:21:23.889Z,19.60
2017-12-25T00:22:29.331Z,19.40
2017-12-25T00:23:34.382Z,19.30
2017-12-25T00:24:39.373Z,19.20
2017-12-25T00:25:44.388Z,19.10
2017-12-25T00:26:49.237Z,19.10
2017-12-25T00:27:54.435Z,19.00
2017-12-25T00:28:59.194Z,19.00
2017-12-25T00:30:04.176Z,18.90
2017-12-25T00:31:09.285Z,18.80
2017-12-25T00:32:14.725Z,18.80
2017-12-25T00:33:19.617Z,18.70
2017-12-25T00:34:24.437Z,18.70
2017-12-25T00:35:29.361Z,18.60
2017-12-25T00:36:34.395Z,18.60
2017-12-25T00:37:39.596Z,18.50
2017-12-25T00:38:45.009Z,18.50
2017-12-25T00:39:50.385Z,18.50
2017-12-25T00:40:56.076Z,18.50
2017-12-25T00:42:02.285Z,18.40
2017-12-25T00:43:08.316Z,18.40
2017-12-25T00:44:13.405Z,18.40
2017-12-25T00:45:18.221Z,18.40
2017-12-25T00:46:23.138Z,18.40
2017-12-25T00:47:28.349Z,18.30
2017-12-25T00:48:34.057Z,18.30
2017-12-25T00:49:39.614Z,18.20
2017-12-25T00:50:45.101Z,18.30
2017-12-25T00:51:50.676Z,18.20
2017-12-25T00:52:56.109Z,18.20
2017-12-25T00:54:02.026Z,18.10
2017-12-25T00:55:07.626Z,18.10
2017-12-25T00:56:13.349Z,18.10
2017-12-25T00:57:19.118Z,18.10
2017-12-25T00:58:24.672Z,18.10
2017-12-25T00:59:30.437Z,18.10
2017-12-25T01:00:35.724Z,18.10
2017-12-25T01:01:41.013Z,18.10
2017-12-25T01:02:46.619Z,18.00
2017-12-25T01:03:52.179Z,18.00
2017-12-25T01:04:57.733Z,18.10
2017-12-25T01:06:03.464Z,18.10
2017-12-25T01:07:09.201Z,18.20
2017-12-25T01:08:14.449Z,18.30
2017-12-25T01:09:20.053Z,18.40
2017-12-25T01:10:25.619Z,18.50
2017-12-25T01:11:31.351Z,18.50
2017-12-25T01:12:37.227Z,18.60
2017-12-25T01:13:42.931Z,18.60
2017-12-25T01:14:48.836Z,18.60
2017-12-25T01:15:54.508Z,18.70
2017-12-25T01:17:00.144Z,18.70
2017-12-25T01:18:05.462Z,18.70
2017-12-25T01:19:10.861Z,18.70
2017-12-25T01:20:16.471Z,18.70
2017-12-25T01:21:22.161Z,18.80
2017-12-25T01:22:27.691Z,18.80
2017-12-25T01:23:33.327Z,18.70
2017-12-25T01:24:38.968Z,18.80
2017-12-25T01:25:44.623Z,18.70
2017-12-25T01:26:50.787Z,18.80
2017-12-25T01:27:56.582Z,18.70
2017-12-25T01:29:02.051Z,18.80
2017-12-25T01:30:07.942Z,18.80
2017-12-25T01:31:13.687Z,18.80
2017-12-25T01:32:19.501Z,18.80
2017-12-25T01:33:25.189Z,18.80
2017-12-25T01:34:30.914Z,18.80
2017-12-25T01:35:36.676Z,18.80
2017-12-25T01:36:42.476Z,18.80
2017-12-25T01:37:48.389Z,18.80
2017-12-25T01:38:54.214Z,18.80
2017-12-25T01:40:00.371Z,18.80
2017-12-25T01:41:06.234Z,18.80
2017-12-25T01:42:11.869Z,18.80
2017-12-25T01:43:17.753Z,18.80
2017-12-25T01:44:23.548Z,18.80
2017-12-25T01:45:29.175Z,18.80
2017-12-25T01:46:35.145Z,18.80
2017-12-25T01:47:40.973Z,18.80
2017-12-25T01:48:46.593Z,18.80
2017-12-25T01:49:52.197Z,18.80
2017-12-25T01:50:57.903Z,18.80
2017-12-25T01:52:03.650Z,18.80
2017-12-25T01:53:09.146Z,18.80
2017-12-25T01:54:14.752Z,18.80
2017-12-25T01:55:20.448Z,18.80
2017-12-25T01:56:26.235Z,18.80
2017-12-25T01:57:31.906Z,18.80
2017-12-25T01:58:37.288Z,18.80
2017-12-25T01:59:42.774Z,18.80
2017-12-25T02:00:48.231Z,18.70
2017-12-25T02:01:53.680Z,18.80
2017-12-25T02:02:58.934Z,18.80
2017-12-25T02:04:04.425Z,18.80
2017-12-25T02:05:09.895Z,18.80
2017-12-25T02:06:15.121Z,18.80
2017-12-25T02:07:20.909Z,18.80
2017-12-25T02:08:26.783Z,18.80
2017-12-25T02:09:32.198Z,18.80
2017-12-25T02:10:37.857Z,18.80
2017-12-25T02:11:43.375Z,18.70
2017-12-25T02:12:48.852Z,18.80
2017-12-25T02:13:54.174Z,18.70
2017-12-25T02:14:59.508Z,18.70
2017-12-25T02:16:05.219Z,18.80
2017-12-25T02:17:10.619Z,18.80
2017-12-25T02:18:16.552Z,18.80
2017-12-25T02:19:22.145Z,18.80
2017-12-25T02:20:27.683Z,18.80
2017-12-25T02:21:33.233Z,18.80
2017-12-25T02:22:39.683Z,18.80
2017-12-25T02:23:45.246Z,18.80
2017-12-25T02:24:50.876Z,18.80
2017-12-25T02:25:56.212Z,18.80
2017-12-25T02:27:02.044Z,18.80
2017-12-25T02:28:07.543Z,18.80
2017-12-25T02:29:13.022Z,18.80
2017-12-25T02:30:18.581Z,18.80
2017-12-25T02:31:24.100Z,18.80
2017-12-25T02:32:29.582Z,18.80
2017-12-25T02:33:34.954Z,18.90
2017-12-25T02:34:40.308Z,18.90
2017-12-25T02:35:45.792Z,18.90
2017-12-25T02:36:51.690Z,18.90
2017-12-25T02:37:58.446Z,18.90
2017-12-25T02:39:04.287Z,18.90
2017-12-25T02:40:09.724Z,18.90
2017-12-25T02:41:15.315Z,18.90
2017-12-25T02:42:20.821Z,18.90
2017-12-25T02:43:26.524Z,18.90
2017-12-25T02:44:32.335Z,18.90
2017-12-25T02:45:38.036Z,18.90
2017-12-25T02:46:44.240Z,18.90
2017-12-25T02:47:49.961Z,18.90
2017-12-25T02:48:55.653Z,18.90
2017-12-25T02:50:01.416Z,18.90
2017-12-25T02:51:07.089Z,18.90
2017-12-25T02:52:12.686Z,18.90
2017-12-25T02:53:19.720Z,18.90
2017-12-25T02:54:25.448Z,18.90
2017-12-25T02:55:31.074Z,18.90
2017-12-25T02:56:37.037Z,18.90
2017-12-25T02:57:42.662Z,18.90
2017-12-25T02:58:48.316Z,18.90
2017-12-25T02:59:53.805Z,18.90
2017-12-25T03:00:59.399Z,19.00
2017-12-25T03:02:04.983Z,18.90
2017-12-25T03:03:10.472Z,18.90
2017-12-25T03:04:16.134Z,18.90
2017-12-25T03:05:21.856Z,18.90
2017-12-25T03:06:28.015Z,19.00
2017-12-25T03:07:33.713Z,18.90
2017-12-25T03:08:40.424Z,19.00
2017-12-25T03:09:46.027Z,18.90
2017-12-25T03:10:51.452Z,18.90
2017-12-25T03:11:57.216Z,18.90
2017-12-25T03:13:02.886Z,19.00
2017-12-25T03:14:08.421Z,19.00
2017-12-25T03:15:14.327Z,19.00
2017-12-25T03:16:20.274Z,19.00
2017-12-25T03:17:26.108Z,19.00
2017-12-25T03:18:31.980Z,19.00
2017-12-25T03:19:37.024Z,19.00
2017-12-25T03:20:41.867Z,19.00
2017-12-25T03:21:46.785Z,19.00
2017-12-25T03:22:51.700Z,19.00
2017-12-25T03:23:57.546Z,19.00
2017-12-25T03:25:02.571Z,19.00
2017-12-25T03:26:07.936Z,18.90
2017-12-25T03:27:12.887Z,18.90
2017-12-25T03:28:17.649Z,18.90
2017-12-25T03:29:22.666Z,18.90
2017-12-25T03:30:27.667Z,18.90
2017-12-25T03:31:32.732Z,18.90
2017-12-25T03:32:37.693Z,18.90
2017-12-25T03:33:42.653Z,18.90
2017-12-25T03:34:47.634Z,18.90
2017-12-25T03:35:52.572Z,18.90
2017-12-25T03:36:57.390Z,18.90
2017-12-25T03:38:02.240Z,18.90
2017-12-25T03:39:07.086Z,18.90
2017-12-25T03:40:12.040Z,18.90
2017-12-25T03:41:17.012Z,18.90
2017-12-25T03:42:22.762Z,18.90
2017-12-25T03:43:27.877Z,18.90
2017-12-25T03:44:32.680Z,18.90
2017-12-25T03:45:37.514Z,18.90
2017-12-25T03:46:42.358Z,18.90
2017-12-25T03:47:47.263Z,18.90
2017-12-25T03:48:52.114Z,18.90
2017-12-25T03:49:57.113Z,18.90
2017-12-25T03:51:01.914Z,18.90
2017-12-25T03:52:06.650Z,18.90
2017-12-25T03:53:11.717Z,18.90
2017-12-25T03:54:16.552Z,18.90
2017-12-25T03:55:21.446Z,18.90
2017-12-25T03:56:26.441Z,18.90
2017-12-25T03:57:31.247Z,18.90
2017-12-25T03:58:36.155Z,18.90
2017-12-25T03:59:41.060Z,18.90
2017-12-25T04:00:47.081Z,18.90
2017-12-25T04:01:52.048Z,18.90
2017-12-25T04:02:56.975Z,18.90
2017-12-25T04:04:01.759Z,18.90
2017-12-25T04:05:06.698Z,18.90
2017-12-25T04:06:11.596Z,18.90
2017-12-25T04:07:16.588Z,18.90
2017-12-25T04:08:21.572Z,18.90
2017-12-25T04:09:26.495Z,18.90
2017-12-25T04:10:31.401Z,18.90
2017-12-25T04:11:36.343Z,18.90
2017-12-25T04:12:41.202Z,18.90
2017-12-25T04:13:46.039Z,18.90
2017-12-25T04:14:50.959Z,18.90
2017-12-25T04:15:55.911Z,18.90
2017-12-25T04:17:00.955Z,18.90
2017-12-25T04:18:05.946Z,18.90
2017-12-25T04:19:11.537Z,18.90
2017-12-25T04:20:16.288Z,18.90
2017-12-25T04:21:21.396Z,18.90
2017-12-25T04:22:26.203Z,18.90
2017-12-25T04:23:31.054Z,18.90
2017-12-25T04:24:36.047Z,18.90
2017-12-25T04:25:41.036Z,18.90
2017-12-25T04:26:45.786Z,18.90
2017-12-25T04:27:50.838Z,18.90
2017-12-25T04:28:55.806Z,18.90
2017-12-25T04:30:01.083Z,18.90
2017-12-25T04:31:05.883Z,18.90
2017-12-25T04:32:10.898Z,18.90
2017-12-25T04:33:15.625Z,18.90
2017-12-25T04:34:20.458Z,18.90
2017-12-25T04:35:25.193Z,18.90
2017-12-25T04:36:30.045Z,18.90
2017-12-25T04:37:35.637Z,18.90
2017-12-25T04:38:40.578Z,18.90
2017-12-25T04:39:45.394Z,18.90
2017-12-25T04:40:50.465Z,18.90
2017-12-25T04:41:55.194Z,18.90
2017-12-25T04:43:00.300Z,18.90
2017-12-25T04:44:05.053Z,18.90
2017-12-25T04:45:10.050Z,18.90
2017-12-25T04:46:14.767Z,18.90
2017-12-25T04:47:19.555Z,18.90
2017-12-25T04:48:24.436Z,18.90
2017-12-25T04:49:29.430Z,18.90
2017-12-25T04:50:34.392Z,18.90
2017-12-25T04:51:39.313Z,18.90
2017-12-25T04:52:44.114Z,18.90
2017-12-25T04:53:49.050Z,18.90
2017-12-25T04:54:53.909Z,18.90
2017-12-25T04:55:59.631Z,18.90
2017-12-25T04:57:04.668Z,18.90
2017-12-25T04:58:09.696Z,18.90
2017-12-25T04:59:14.546Z,18.90
2017-12-25T05:00:19.227Z,18.90
2017-12-25T05:01:24.078Z,18.90
2017-12-25T05:02:28.734Z,18.90
2017-12-25T05:03:33.480Z,18.90
2017-12-25T05:04:38.213Z,18.90
2017-12-25T05:05:43.299Z,18.90
2017-12-25T05:06:48.032Z,18.90
2017-12-25T05:07:52.954Z,18.90
2017-12-25T05:08:57.787Z,18.90
2017-12-25T05:10:02.597Z,18.90
2017-12-25T05:11:07.485Z,18.90
2017-12-25T05:12:12.392Z,18.90
2017-12-25T05:13:17.306Z,18.90
2017-12-25T05:14:23.141Z,18.90
2017-12-25T05:15:28.111Z,18.90
2017-12-25T05:16:32.985Z,18.90
2017-12-25T05:17:37.867Z,18.90
2017-12-25T05:18:42.624Z,18.90
2017-12-25T05:19:47.401Z,18.90
2017-12-25T05:20:52.392Z,18.90
2017-12-25T05:21:57.221Z,18.90
2017-12-25T05:23:02.405Z,18.90
2017-12-25T05:24:07.134Z,18.90
2017-12-25T05:25:12.159Z,18.90
2017-12-25T05:26:16.939Z,18.90
2017-12-25T05:27:22.857Z,18.90
2017-12-25T05:28:27.844Z,18.90
2017-12-25T05:29:32.645Z,18.90
2017-12-25T05:30:37.637Z,18.90
2017-12-25T05:31:42.585Z,18.90
2017-12-25T05:32:48.037Z,18.90
2017-12-25T05:33:52.982Z,18.90
2017-12-25T05:34:57.761Z,18.90
2017-12-25T05:36:02.577Z,18.90
2017-12-25T05:37:07.498Z,18.80
2017-12-25T05:38:12.538Z,18.80
2017-12-25T05:39:17.500Z,18.80
2017-12-25T05:40:22.373Z,18.80
2017-12-25T05:41:27.124Z,18.90
2017-12-25T05:42:32.048Z,18.90
2017-12-25T05:43:36.963Z,18.90
2017-12-25T05:44:41.935Z,18.90
2017-12-25T05:45:46.877Z,18.90
2017-12-25T05:46:51.811Z,18.90
2017-12-25T05:47:56.543Z,18.80
2017-12-25T05:49:01.625Z,18.80
2017-12-25T05:50:06.510Z,18.90
2017-12-25T05:51:11.836Z,18.80
2017-12-25T05:52:16.804Z,18.80
2017-12-25T05:53:21.728Z,18.80
2017-12-25T05:54:26.661Z,18.80
2017-12-25T05:55:31.394Z,18.80
2017-12-25T05:56:36.488Z,18.90
2017-12-25T05:57:41.587Z,18.90
2017-12-25T05:58:46.347Z,18.90
2017-12-25T05:59:51.316Z,18.90
2017-12-25T06:00:56.132Z,18.90
2017-12-25T06:02:00.968Z,18.90
2017-12-25T06:03:06.068Z,18.90
2017-12-25T06:04:10.898Z,18.90
2017-12-25T06:05:15.778Z,18.90
2017-12-25T06:06:20.672Z,18.80
2017-12-25T06:07:25.739Z,18.80
2017-12-25T06:08:30.763Z,18.90
2017-12-25T06:09:36.211Z,18.80
2017-12-25T06:10:41.194Z,18.80
2017-12-25T06:11:46.377Z,18.80
2017-12-25T06:12:51.310Z,18.80
2017-12-25T06:13:56.239Z,18.80
2017-12-25T06:15:01.921Z,18.80
2017-12-25T06:16:06.991Z,18.80
2017-12-25T06:17:11.779Z,18.80
2017-12-25T06:18:16.536Z,18.80
2017-12-25T06:19:21.351Z,18.80
2017-12-25T06:20:26.190Z,18.80
2017-12-25T06:21:31.009Z,18.80
2017-12-25T06:22:36.114Z,18.80
2017-12-25T06:23:40.957Z,18.80
2017-12-25T06:24:45.781Z,18.80
2017-12-25T06:25:50.550Z,18.80
2017-12-25T06:26:55.447Z,18.80
2017-12-25T06:28:00.766Z,18.80
2017-12-25T06:29:05.722Z,18.80
2017-12-25T06:30:10.556Z,18.80
2017-12-25T06:31:15.500Z,18.70
2017-12-25T06:32:20.572Z,18.70
2017-12-25T06:33:25.558Z,18.70
2017-12-25T06:34:30.482Z,18.70
2017-12-25T06:35:35.480Z,18.70
2017-12-25T06:36:40.457Z,18.70
2017-12-25T06:37:45.246Z,18.70
2017-12-25T06:38:50.184Z,18.70
2017-12-25T06:39:54.932Z,18.70
2017-12-25T06:40:59.889Z,18.70
2017-12-25T06:42:04.843Z,18.70
2017-12-25T06:43:09.764Z,18.70
2017-12-25T06:44:14.656Z,18.70
2017-12-25T06:45:19.487Z,18.70
2017-12-25T06:46:24.604Z,18.70
2017-12-25T06:47:30.084Z,18.70
2017-12-25T06:48:34.817Z,18.70
2017-12-25T06:49:39.773Z,18.70
2017-12-25T06:50:44.696Z,18.70
2017-12-25T06:51:49.468Z,18.70
2017-12-25T06:52:54.190Z,18.70
2017-12-25T06:53:58.924Z,18.70
2017-12-25T06:55:03.713Z,18.70
2017-12-25T06:56:08.620Z,18.70
2017-12-25T06:57:13.597Z,18.60
2017-12-25T06:58:18.413Z,18.60
2017-12-25T06:59:23.359Z,18.60
2017-12-25T07:00:28.101Z,18.60
2017-12-25T07:01:33.198Z,18.60
2017-12-25T07:02:38.075Z,18.60
2017-12-25T07:03:42.866Z,18.60
2017-12-25T07:04:48.565Z,18.60
2017-12-25T07:05:53.309Z,18.60
2017-12-25T07:06:58.056Z,18.60
2017-12-25T07:08:02.890Z,18.60
2017-12-25T07:09:07.710Z,18.60
2017-12-25T07:10:12.686Z,18.60
2017-12-25T07:11:17.553Z,18.60
2017-12-25T07:12:22.525Z,18.60
2017-12-25T07:13:27.324Z,18.60
2017-12-25T07:14:32.206Z,18.60
2017-12-25T07:15:37.032Z,18.60
2017-12-25T07:16:41.936Z,18.60
2017-12-25T07:17:46.916Z,18.60
2017-12-25T07:18:51.696Z,18.60
2017-12-25T07:19:56.761Z,18.60
2017-12-25T07:21:01.573Z,18.50
2017-12-25T07:22:06.572Z,18.60
2017-12-25T07:23:12.050Z,18.60
2017-12-25T07:24:17.017Z,18.50
2017-12-25T07:25:21.755Z,18.60
2017-12-25T07:26:26.544Z,18.60
2017-12-25T07:27:31.524Z,18.60
2017-12-25T07:28:36.259Z,18.50
2017-12-25T07:29:41.576Z,18.60
2017-12-25T07:30:46.342Z,18.50
2017-12-25T07:31:51.305Z,18.60
2017-12-25T07:32:56.036Z,18.50
2017-12-25T07:34:00.768Z,18.50
2017-12-25T07:35:05.529Z,18.60
2017-12-25T07:36:10.401Z,18.50
2017-12-25T07:37:15.177Z,18.60
2017-12-25T07:38:20.034Z,18.50
2017-12-25T07:39:25.289Z,18.60
2017-12-25T07:40:30.287Z,18.50
2017-12-25T07:41:35.777Z,18.60
2017-12-25T07:42:40.769Z,18.50
2017-12-25T07:43:45.812Z,18.50
2017-12-25T07:44:50.667Z,18.50
2017-12-25T07:45:55.612Z,18.50
2017-12-25T07:47:00.485Z,18.50
2017-12-25T07:48:05.458Z,18.60
2017-12-25T07:49:10.302Z,18.50
2017-12-25T07:50:15.285Z,18.50
2017-12-25T07:51:20.309Z,18.50
2017-12-25T07:52:25.106Z,18.50
2017-12-25T07:53:30.300Z,18.50
2017-12-25T07:54:35.168Z,18.50
2017-12-25T07:55:39.947Z,18.50
2017-12-25T07:56:45.101Z,18.50
2017-12-25T07:57:50.318Z,18.50
2017-12-25T07:58:55.247Z,18.50
2017-12-25T08:00:00.560Z,18.50
2017-12-25T08:01:05.498Z,18.50
2017-12-25T08:02:10.412Z,18.50
2017-12-25T08:03:15.929Z,18.50
2017-12-25T08:04:20.787Z,18.50
2017-12-25T08:05:25.773Z,18.50
2017-12-25T08:06:31.485Z,18.50
2017-12-25T08:07:36.538Z,18.50
2017-12-25T08:08:41.399Z,18.50
2017-12-25T08:09:46.125Z,18.50
2017-12-25T08:10:51.046Z,18.50
2017-12-25T08:11:56.020Z,18.50
2017-12-25T08:13:00.926Z,18.40
2017-12-25T08:14:08.361Z,18.30
2017-12-25T08:15:13.170Z,18.30
2017-12-25T08:16:18.223Z,18.10
2017-12-25T08:17:23.089Z,18.00
2017-12-25T08:18:28.026Z,18.10
2017-12-25T08:19:33.063Z,18.10
2017-12-25T08:20:37.898Z,18.10
2017-12-25T08:21:42.717Z,18.20
2017-12-25T08:22:47.553Z,18.30
2017-12-25T08:23:53.006Z,18.30
2017-12-25T08:24:58.131Z,18.40
2017-12-25T08:26:04.291Z,18.50
2017-12-25T08:27:10.219Z,18.50
2017-12-25T08:28:15.177Z,18.60
2017-12-25T08:29:19.982Z,18.70
2017-12-25T08:30:24.780Z,18.80
2017-12-25T08:31:30.430Z,18.90
2017-12-25T08:32:35.180Z,19.00
2017-12-25T08:33:40.705Z,19.10
2017-12-25T08:34:45.626Z,19.20
2017-12-25T08:35:50.459Z,19.30
2017-12-25T08:36:55.369Z,19.40
2017-12-25T08:38:00.129Z,19.50
2017-12-25T08:39:05.083Z,19.50
2017-12-25T08:40:10.092Z,19.60
2017-12-25T08:41:15.027Z,19.70
2017-12-25T08:42:19.949Z,19.80
2017-12-25T08:43:25.016Z,19.80
2017-12-25T08:44:30.193Z,19.90
2017-12-25T08:45:41.256Z,19.90
2017-12-25T08:46:46.540Z,20.00
2017-12-25T08:47:51.453Z,20.00
2017-12-25T08:48:56.430Z,20.00
2017-12-25T08:50:01.441Z,20.00
2017-12-25T08:51:06.484Z,20.00
2017-12-25T08:52:11.524Z,20.00
2017-12-25T08:53:18.375Z,20.10
2017-12-25T08:54:23.333Z,20.10
2017-12-25T08:55:28.306Z,20.10
2017-12-25T08:56:33.124Z,20.00
2017-12-25T08:57:37.986Z,20.00
2017-12-25T08:58:43.334Z,20.00
2017-12-25T08:59:48.299Z,20.00
2017-12-25T09:00:53.238Z,20.00
2017-12-25T09:01:58.230Z,20.00
2017-12-25T09:03:03.270Z,20.00
2017-12-25T09:04:08.228Z,20.00
2017-12-25T09:05:13.279Z,20.10
2017-12-25T09:06:18.169Z,20.10
2017-12-25T09:07:26.184Z,20.10
2017-12-25T09:08:32.281Z,20.10
2017-12-25T09:09:37.229Z,20.10
2017-12-25T09:10:42.311Z,20.10
2017-12-25T09:11:47.351Z,20.10
2017-12-25T09:12:52.146Z,20.10
2017-12-25T09:13:57.045Z,20.10
2017-12-25T09:15:02.153Z,20.10
2017-12-25T09:16:06.985Z,20.10
2017-12-25T09:17:11.838Z,20.10
2017-12-25T09:18:16.708Z,20.00
2017-12-25T09:19:21.737Z,20.00
2017-12-25T09:20:26.936Z,20.00
2017-12-25T09:21:31.926Z,20.00
2017-12-25T09:22:37.010Z,20.00
2017-12-25T09:23:42.115Z,20.00
2017-12-25T09:24:47.613Z,20.00
2017-12-25T09:25:53.534Z,20.00
2017-12-25T09:26:58.394Z,20.00
2017-12-25T09:28:03.353Z,20.00
2017-12-25T09:29:08.400Z,20.00
2017-12-25T09:30:13.528Z,20.00
2017-12-25T09:31:18.598Z,20.10
2017-12-25T09:32:23.442Z,20.10
2017-12-25T09:33:28.443Z,20.10
2017-12-25T09:34:33.272Z,20.10
2017-12-25T09:35:38.260Z,20.10
2017-12-25T09:36:43.304Z,20.10
2017-12-25T09:37:48.221Z,20.10
2017-12-25T09:38:53.215Z,20.10
2017-12-25T09:39:58.093Z,20.10
2017-12-25T09:41:03.006Z,20.10
2017-12-25T09:42:08.033Z,20.10
2017-12-25T09:43:12.905Z,20.00
2017-12-25T09:44:17.934Z,20.00
2017-12-25T09:45:23.188Z,20.00
2017-12-25T09:46:27.966Z,20.00
2017-12-25T09:47:32.906Z,20.00
2017-12-25T09:48:37.756Z,20.00
2017-12-25T09:49:42.589Z,20.00
2017-12-25T09:50:47.622Z,20.00
2017-12-25T09:51:52.578Z,20.00
2017-12-25T09:52:57.922Z,20.00
2017-12-25T09:54:02.882Z,20.00
2017-12-25T09:55:07.706Z,20.10
2017-12-25T09:56:12.714Z,20.10
2017-12-25T09:57:17.922Z,20.10
2017-12-25T09:58:22.907Z,20.00
2017-12-25T09:59:27.726Z,20.10
2017-12-25T10:00:32.606Z,20.10
2017-12-25T10:01:37.556Z,20.10
2017-12-25T10:02:42.716Z,20.10
2017-12-25T10:03:47.700Z,20.10
2017-12-25T10:04:52.698Z,20.10
2017-12-25T10:05:57.657Z,20.10
2017-12-25T10:07:02.458Z,20.10
2017-12-25T10:08:07.382Z,20.10
2017-12-25T10:09:12.312Z,20.10
2017-12-25T10:10:17.050Z,20.10
2017-12-25T10:11:22.114Z,20.10
2017-12-25T10:12:26.888Z,20.10
2017-12-25T10:13:31.738Z,20.00
2017-12-25T10:14:37.260Z,20.00
2017-12-25T10:15:42.467Z,20.00
2017-12-25T10:16:47.630Z,20.00
2017-12-25T10:17:52.902Z,20.00
2017-12-25T10:18:57.738Z,19.90
2017-12-25T10:20:03.102Z,20.00
2017-12-25T10:21:08.325Z,20.00
2017-12-25T10:22:13.275Z,20.00
2017-12-25T10:23:18.195Z,20.00
2017-12-25T10:24:23.127Z,20.00
2017-12-25T10:25:28.091Z,20.00
2017-12-25T10:26:33.094Z,19.90
2017-12-25T10:27:39.401Z,19.90
2017-12-25T10:28:44.360Z,19.90
2017-12-25T10:29:49.692Z,19.90
2017-12-25T10:30:54.729Z,19.90
2017-12-25T10:31:59.578Z,19.90
2017-12-25T10:33:04.695Z,19.90
2017-12-25T10:34:09.875Z,19.90
2017-12-25T10:35:14.767Z,19.90
2017-12-25T10:36:19.991Z,19.90
2017-12-25T10:37:25.680Z,19.90
2017-12-25T10:38:30.734Z,19.90
2017-12-25T10:39:35.593Z,19.90
2017-12-25T10:40:40.639Z,19.90
2017-12-25T10:41:45.569Z,19.90
2017-12-25T10:42:50.699Z,19.80
2017-12-25T10:43:55.939Z,19.80
2017-12-25T10:45:01.074Z,19.80
2017-12-25T10:46:06.029Z,19.80
2017-12-25T10:47:11.568Z,19.80
2017-12-25T10:48:17.016Z,19.80
2017-12-25T10:49:22.305Z,19.80
2017-12-25T10:50:27.133Z,19.80
2017-12-25T10:51:32.824Z,19.80
2017-12-25T10:52:39.185Z,19.80
2017-12-25T10:53:44.204Z,19.80
2017-12-25T10:54:49.490Z,19.80
2017-12-25T10:55:55.045Z,19.80
2017-12-25T10:56:59.964Z,19.80
2017-12-25T10:58:04.817Z,19.90
2017-12-25T10:59:09.651Z,19.80
2017-12-25T11:00:14.516Z,19.80
2017-12-25T11:01:19.312Z,19.80
2017-12-25T11:02:24.314Z,19.80
2017-12-25T11:03:29.178Z,19.70
2017-12-25T11:04:34.195Z,19.70
2017-12-25T11:05:38.968Z,19.70
2017-12-25T11:06:44.116Z,19.70
2017-12-25T11:07:49.178Z,19.70
2017-12-25T11:08:54.214Z,19.60
2017-12-25T11:09:59.193Z,19.60
2017-12-25T11:11:04.067Z,19.60
2017-12-25T11:12:09.009Z,19.60
2017-12-25T11:13:14.134Z,19.60
2017-12-25T11:14:19.135Z,19.60
2017-12-25T11:15:24.327Z,19.60
2017-12-25T11:16:29.445Z,19.60
2017-12-25T11:17:34.302Z,19.60
2017-12-25T11:18:39.401Z,19.70
2017-12-25T11:19:44.381Z,19.70
2017-12-25T11:20:49.380Z,19.70
2017-12-25T11:21:54.182Z,19.70
2017-12-25T11:22:59.074Z,19.70
2017-12-25T11:24:04.172Z,19.80
2017-12-25T11:25:09.154Z,19.80
2017-12-25T11:26:14.064Z,19.80
2017-12-25T11:27:18.976Z,19.90
2017-12-25T11:28:23.921Z,19.90
2017-12-25T11:29:28.962Z,19.90
2017-12-25T11:30:33.911Z,19.90
2017-12-25T11:31:39.088Z,19.90
2017-12-25T11:32:44.247Z,19.90
2017-12-25T11:33:49.529Z,20.00
2017-12-25T11:34:54.418Z,20.00
2017-12-25T11:35:59.294Z,20.00
2017-12-25T11:37:04.684Z,20.10
2017-12-25T11:38:09.592Z,20.10
2017-12-25T11:39:14.629Z,20.10
2017-12-25T11:40:19.724Z,20.10
2017-12-25T11:41:25.655Z,20.20
2017-12-25T11:42:30.756Z,20.20
2017-12-25T11:43:35.812Z,20.20
2017-12-25T11:44:40.847Z,20.20
2017-12-25T11:45:45.732Z,20.20
2017-12-25T11:46:50.660Z,20.20
2017-12-25T11:47:55.909Z,20.30
2017-12-25T11:49:00.889Z,20.30
2017-12-25T11:50:05.961Z,20.30
2017-12-25T11:51:10.832Z,20.30
2017-12-25T11:52:15.770Z,20.30
2017-12-25T11:53:22.549Z,20.30
2017-12-25T11:54:27.577Z,20.30
2017-12-25T11:55:32.642Z,20.30
2017-12-25T11:56:37.945Z,20.30
2017-12-25T11:57:42.758Z,20.30
2017-12-25T11:58:47.806Z,20.30
2017-12-25T11:59:52.805Z,20.30
2017-12-25T12:00:57.912Z,20.30
2017-12-25T12:02:02.935Z,20.30
2017-12-25T12:03:07.983Z,20.30
2017-12-25T12:04:13.058Z,20.30
2017-12-25T12:05:19.108Z,20.30
2017-12-25T12:06:24.195Z,20.30
2017-12-25T12:07:29.151Z,20.30
2017-12-25T12:08:33.904Z,20.30
2017-12-25T12:09:38.842Z,20.30
2017-12-25T12:10:43.838Z,20.30
2017-12-25T12:11:48.856Z,20.20
2017-12-25T12:12:55.608Z,20.20
2017-12-25T12:14:03.699Z,20.20
2017-12-25T12:15:09.054Z,20.20
2017-12-25T12:16:14.279Z,20.10
2017-12-25T12:17:19.239Z,20.10
2017-12-25T12:18:24.271Z,20.10
2017-12-25T12:19:29.559Z,20.10
2017-12-25T12:20:34.538Z,20.10
2017-12-25T12:21:39.947Z,20.10
2017-12-25T12:22:44.810Z,20.10
2017-12-25T12:23:49.749Z,20.10
2017-12-25T12:24:54.628Z,20.10
2017-12-25T12:26:00.217Z,20.00
2017-12-25T12:27:05.183Z,20.00
2017-12-25T12:28:10.383Z,20.00
2017-12-25T12:29:15.651Z,19.90
2017-12-25T12:30:20.497Z,19.90
2017-12-25T12:31:25.434Z,19.90
2017-12-25T12:32:31.268Z,19.90
2017-12-25T12:33:37.110Z,19.90
2017-12-25T12:34:41.979Z,19.80
2017-12-25T12:35:46.884Z,19.80
2017-12-25T12:36:51.906Z,19.80
2017-12-25T12:37:56.697Z,19.80
2017-12-25T12:39:02.572Z,19.80
2017-12-25T12:40:07.438Z,19.80
2017-12-25T12:41:13.067Z,19.80
2017-12-25T12:42:18.135Z,19.80
2017-12-25T12:43:22.893Z,19.80
2017-12-25T12:44:28.013Z,19.80
2017-12-25T12:45:33.575Z,19.80
2017-12-25T12:46:38.343Z,19.80
2017-12-25T12:47:43.115Z,19.80
2017-12-25T12:48:47.922Z,19.80
2017-12-25T12:49:52.960Z,19.80
2017-12-25T12:50:58.000Z,19.80
2017-12-25T12:52:02.806Z,19.80
2017-12-25T12:53:07.633Z,19.80
2017-12-25T12:54:12.401Z,19.80
2017-12-25T12:55:17.225Z,19.80
2017-12-25T12:56:22.175Z,19.80
2017-12-25T12:57:27.608Z,19.80
2017-12-25T12:58:32.399Z,19.80
2017-12-25T12:59:37.187Z,19.90
2017-12-25T13:00:42.144Z,19.90
2017-12-25T13:01:47.199Z,19.90
2017-12-25T13:02:51.974Z,20.00
2017-12-25T13:03:56.875Z,20.00
2017-12-25T13:05:02.004Z,20.00
2017-12-25T13:06:06.944Z,20.00
2017-12-25T13:07:11.970Z,20.00
2017-12-25T13:08:17.385Z,20.10
2017-12-25T13:09:22.404Z,20.10
2017-12-25T13:10:27.220Z,20.10
2017-12-25T13:11:32.070Z,20.10
2017-12-25T13:12:36.951Z,20.10
2017-12-25T13:13:41.776Z,20.10
2017-12-25T13:14:46.748Z,20.10
2017-12-25T13:15:52.098Z,20.10
2017-12-25T13:16:57.158Z,20.10
2017-12-25T13:18:02.178Z,20.10
2017-12-25T13:19:07.049Z,20.10
2017-12-25T13:20:12.484Z,20.10
2017-12-25T13:21:17.518Z,20.10
2017-12-25T13:22:22.489Z,20.10
2017-12-25T13:23:27.464Z,20.10
2017-12-25T13:24:33.153Z,20.10
2017-12-25T13:25:38.119Z,20.10
2017-12-25T13:26:42.967Z,20.10
2017-12-25T13:27:47.906Z,20.10
2017-12-25T13:28:52.692Z,20.10
2017-12-25T13:29:57.630Z,20.10
2017-12-25T13:31:02.721Z,20.10
2017-12-25T13:32:07.730Z,20.10
2017-12-25T13:33:12.557Z,20.10
2017-12-25T13:34:17.916Z,20.10
2017-12-25T13:35:22.946Z,20.10
2017-12-25T13:36:27.868Z,20.10
2017-12-25T13:37:32.780Z,20.10
2017-12-25T13:38:37.564Z,20.10
2017-12-25T13:39:42.413Z,20.10
2017-12-25T13:40:47.187Z,20.10
2017-12-25T13:41:52.150Z,20.10
2017-12-25T13:42:57.151Z,20.10
2017-12-25T13:44:02.157Z,20.10
2017-12-25T13:45:18.843Z,20.10
2017-12-25T13:46:23.630Z,20.10
2017-12-25T13:47:28.427Z,20.20
2017-12-25T13:48:33.260Z,20.20
2017-12-25T13:49:38.170Z,20.10
2017-12-25T13:50:43.085Z,20.10
2017-12-25T13:51:48.335Z,20.10
2017-12-25T13:52:53.266Z,20.20
2017-12-25T13:53:58.173Z,20.20
2017-12-25T13:55:03.098Z,20.20
2017-12-25T13:56:08.311Z,20.20
2017-12-25T13:57:13.186Z,20.20
2017-12-25T13:58:21.530Z,20.20
2017-12-25T13:59:29.904Z,20.20